createdAt,value
2023-05-09T00:00:26.266Z,13.61
2023-05-09T00:02:52.521Z,13.65
2023-05-09T00:05:18.768Z,13.62
2023-05-09T00:07:45.106Z,13.44
2023-05-09T00:10:11.403Z,13.44
2023-05-09T00:12:37.719Z,13.55
2023-05-09T00:15:03.968Z,13.58
2023-05-09T00:17:30.250Z,13.60
2023-05-09T00:19:56.586Z,13.71
2023-05-09T00:22:22.887Z,13.74
2023-05-09T00:24:49.184Z,13.80
2023-05-09T00:27:16.049Z,13.77
2023-05-09T00:29:42.618Z,13.87
2023-05-09T00:32:08.956Z,13.93
2023-05-09T00:34:35.333Z,13.99
2023-05-09T00:37:01.622Z,14.05
2023-05-09T00:39:27.873Z,14.00
2023-05-09T00:41:54.123Z,14.03
2023-05-09T00:44:20.371Z,13.92
2023-05-09T00:46:46.641Z,13.86
2023-05-09T00:49:12.925Z,13.85
2023-05-09T00:51:39.171Z,13.89
2023-05-09T00:54:07.632Z,13.95
2023-05-09T00:56:35.312Z,13.97
2023-05-09T00:59:01.593Z,13.97
2023-05-09T01:01:27.902Z,13.97
2023-05-09T01:03:54.216Z,13.91
2023-05-09T01:06:20.501Z,13.91
2023-05-09T01:08:46.758Z,13.93
2023-05-09T01:11:13.019Z,13.95
2023-05-09T01:13:39.503Z,13.98
2023-05-09T01:16:05.906Z,13.96
2023-05-09T01:18:32.215Z,13.91
2023-05-09T01:20:58.464Z,13.91
2023-05-09T01:23:24.736Z,13.87
2023-05-09T01:25:50.988Z,13.78
2023-05-09T01:28:17.227Z,13.82
2023-05-09T01:30:43.495Z,13.77
2023-05-09T01:33:09.785Z,13.78
2023-05-09T01:35:36.039Z,13.70
2023-05-09T01:38:02.315Z,13.57
2023-05-09T01:40:28.592Z,13.46
2023-05-09T01:42:55.731Z,13.38
2023-05-09T01:45:22.023Z,13.27
2023-05-09T01:47:48.323Z,13.24
2023-05-09T01:50:14.610Z,13.17
2023-05-09T01:52:40.850Z,13.21
2023-05-09T01:55:07.105Z,13.18
2023-05-09T01:57:33.356Z,13.18
2023-05-09T01:59:59.596Z,13.12
2023-05-09T02:02:25.977Z,13.05
2023-05-09T02:04:52.280Z,12.90
2023-05-09T02:07:18.538Z,12.85
2023-05-09T02:09:44.872Z,12.76
2023-05-09T02:12:11.110Z,12.68
2023-05-09T02:14:37.355Z,12.59
2023-05-09T02:17:03.626Z,12.57
2023-05-09T02:19:29.941Z,12.59
2023-05-09T02:21:56.193Z,12.56
2023-05-09T02:24:22.440Z,12.48
2023-05-09T02:26:48.682Z,12.47
2023-05-09T02:29:14.918Z,12.43
2023-05-09T02:31:41.219Z,12.35
2023-05-09T02:34:07.505Z,12.27
2023-05-09T02:36:33.744Z,12.12
2023-05-09T02:39:00.000Z,12.16
2023-05-09T02:41:26.229Z,12.17
2023-05-09T02:43:52.476Z,12.16
2023-05-09T02:46:18.743Z,12.22
2023-05-09T02:48:45.002Z,12.19
2023-05-09T02:51:11.243Z,12.13
2023-05-09T02:53:37.483Z,12.15
2023-05-09T02:56:03.775Z,12.20
2023-05-09T02:58:30.036Z,12.20
2023-05-09T03:00:56.266Z,12.07
2023-05-09T03:03:22.643Z,12.12
2023-05-09T03:05:48.967Z,12.04
2023-05-09T03:08:15.201Z,12.05
2023-05-09T03:10:42.064Z,11.97
2023-05-09T03:13:08.330Z,11.91
2023-05-09T03:15:34.665Z,11.98
2023-05-09T03:18:00.934Z,11.97
2023-05-09T03:20:27.216Z,12.02
2023-05-09T03:22:53.478Z,12.02
2023-05-09T03:25:19.746Z,12.03
2023-05-09T03:27:46.032Z,12.04
2023-05-09T03:30:12.289Z,12.02
2023-05-09T03:32:38.538Z,11.97
2023-05-09T03:35:04.799Z,11.92
2023-05-09T03:37:31.047Z,11.75
2023-05-09T03:39:57.304Z,11.81
2023-05-09T03:42:23.564Z,11.80
2023-05-09T03:44:49.802Z,11.80
2023-05-09T03:47:16.069Z,11.83
2023-05-09T03:49:42.304Z,11.84
2023-05-09T03:52:08.609Z,11.83
2023-05-09T03:54:34.912Z,11.86
2023-05-09T03:57:01.191Z,11.85
2023-05-09T03:59:27.449Z,11.87
2023-05-09T04:01:53.740Z,11.93
2023-05-09T04:04:20.103Z,11.91
2023-05-09T04:06:46.366Z,11.96
2023-05-09T04:09:12.624Z,11.97
2023-05-09T04:11:38.880Z,12.09
2023-05-09T04:14:05.132Z,12.08
2023-05-09T04:16:31.468Z,12.10
2023-05-09T04:18:57.767Z,12.11
2023-05-09T04:21:24.007Z,12.11
2023-05-09T04:23:50.245Z,12.07
2023-05-09T04:26:16.519Z,12.07
2023-05-09T04:28:42.825Z,12.04
2023-05-09T04:31:09.122Z,12.05
2023-05-09T04:33:35.430Z,12.08
2023-05-09T04:36:01.786Z,12.16
2023-05-09T04:38:28.056Z,12.23
2023-05-09T04:40:54.333Z,12.14
2023-05-09T04:43:20.842Z,12.09
2023-05-09T04:45:47.144Z,12.10
2023-05-09T04:48:13.504Z,12.08
2023-05-09T04:50:39.756Z,12.27
2023-05-09T04:53:05.992Z,12.42
2023-05-09T04:55:32.240Z,12.48
2023-05-09T04:57:58.463Z,12.61
2023-05-09T05:00:24.688Z,12.74
2023-05-09T05:02:51.006Z,12.78
2023-05-09T05:05:17.335Z,12.61
2023-05-09T05:07:43.572Z,12.75
2023-05-09T05:10:09.845Z,12.86
2023-05-09T05:12:36.098Z,13.06
2023-05-09T05:15:02.364Z,13.20
2023-05-09T05:17:28.671Z,13.37
2023-05-09T05:19:54.906Z,13.45
2023-05-09T05:22:21.202Z,13.57
2023-05-09T05:24:47.500Z,13.64
2023-05-09T05:27:13.746Z,13.73
2023-05-09T05:29:39.999Z,13.89
2023-05-09T05:32:06.267Z,14.03
2023-05-09T05:34:32.499Z,14.07
2023-05-09T05:36:58.818Z,14.08
2023-05-09T05:39:25.077Z,14.07
2023-05-09T05:41:51.338Z,14.09
2023-05-09T05:44:17.621Z,14.16
2023-05-09T05:46:43.935Z,14.30
2023-05-09T05:49:10.194Z,14.43
2023-05-09T05:51:36.448Z,14.57
2023-05-09T05:54:02.686Z,14.60
2023-05-09T05:56:28.932Z,14.61
2023-05-09T05:58:55.200Z,14.62
2023-05-09T06:01:21.464Z,14.70
2023-05-09T06:03:50.188Z,14.79
2023-05-09T06:06:16.560Z,14.92
2023-05-09T06:08:42.896Z,15.01
2023-05-09T06:11:09.147Z,15.11
2023-05-09T06:13:35.418Z,15.26
2023-05-09T06:16:15.046Z,15.37
2023-05-09T06:18:44.713Z,15.54
2023-05-09T06:21:11.087Z,15.59
2023-05-09T06:23:40.531Z,15.64
2023-05-09T06:26:11.170Z,15.60
2023-05-09T06:28:37.590Z,15.69
2023-05-09T06:31:04.072Z,15.72
2023-05-09T06:33:30.567Z,15.75
2023-05-09T06:35:56.900Z,15.78
2023-05-09T06:38:23.302Z,15.85
2023-05-09T06:40:49.746Z,15.93
2023-05-09T06:43:16.038Z,16.01
2023-05-09T06:45:42.313Z,16.12
2023-05-09T06:48:08.588Z,16.21
2023-05-09T06:50:34.897Z,16.25
2023-05-09T06:53:01.171Z,16.34
2023-05-09T06:55:27.496Z,16.35
2023-05-09T06:57:53.733Z,16.37
2023-05-09T07:00:20.019Z,16.51
2023-05-09T07:02:46.365Z,16.65
2023-05-09T07:05:12.809Z,16.72
2023-05-09T07:07:39.285Z,16.78
2023-05-09T07:10:11.372Z,16.88
2023-05-09T07:12:38.401Z,16.97
2023-05-09T07:15:04.642Z,16.93
2023-05-09T07:17:30.961Z,16.77
2023-05-09T07:19:57.209Z,16.46
2023-05-09T07:22:23.533Z,16.47
2023-05-09T07:24:49.796Z,16.44
2023-05-09T07:27:16.122Z,16.67
2023-05-09T07:29:42.414Z,16.79
2023-05-09T07:32:08.887Z,17.00
2023-05-09T07:34:35.310Z,17.14
2023-05-09T07:37:01.678Z,17.40
2023-05-09T07:39:27.947Z,17.59
2023-05-09T07:41:54.223Z,17.70
2023-05-09T07:44:20.487Z,17.73
2023-05-09T07:46:46.717Z,17.76
2023-05-09T07:49:12.966Z,17.74
2023-05-09T07:51:39.192Z,17.73
2023-05-09T07:54:05.470Z,17.64
2023-05-09T07:56:31.735Z,17.64
2023-05-09T07:58:58.004Z,17.63
2023-05-09T08:01:24.328Z,17.72
2023-05-09T08:03:50.722Z,17.76
2023-05-09T08:06:17.111Z,17.84
2023-05-09T08:08:43.352Z,17.69
2023-05-09T08:11:09.587Z,17.54
2023-05-09T08:13:35.873Z,17.72
2023-05-09T08:16:02.192Z,17.76
2023-05-09T08:18:28.503Z,17.99
2023-05-09T08:20:54.766Z,18.17
2023-05-09T08:23:21.029Z,18.36
2023-05-09T08:25:47.312Z,18.35
2023-05-09T08:28:13.571Z,18.38
2023-05-09T08:30:39.828Z,18.56
2023-05-09T08:33:06.144Z,18.52
2023-05-09T08:35:32.397Z,18.67
2023-05-09T08:37:58.685Z,18.65
2023-05-09T08:40:24.983Z,18.59
2023-05-09T08:42:51.328Z,18.36
2023-05-09T08:45:17.573Z,18.43
2023-05-09T08:47:43.930Z,18.28
2023-05-09T08:50:10.220Z,18.46
2023-05-09T08:52:36.452Z,18.57
2023-05-09T08:55:02.706Z,18.43
2023-05-09T08:57:28.931Z,18.44
2023-05-09T08:59:55.166Z,18.32
2023-05-09T09:02:21.440Z,18.24
2023-05-09T09:04:47.778Z,18.52
2023-05-09T09:07:17.098Z,18.69
2023-05-09T09:09:43.859Z,18.66
2023-05-09T09:12:10.538Z,18.96
2023-05-09T09:14:39.082Z,19.25
2023-05-09T09:17:05.958Z,19.32
2023-05-09T09:19:32.517Z,19.30
2023-05-09T09:21:58.959Z,19.54
2023-05-09T09:24:27.961Z,19.53
2023-05-09T09:26:54.414Z,20.01
2023-05-09T09:29:21.126Z,20.48
2023-05-09T09:31:48.010Z,20.29
2023-05-09T09:34:20.592Z,20.47
2023-05-09T09:39:43.472Z,20.56
2023-05-09T09:45:50.663Z,20.78
2023-05-09T09:48:37.994Z,21.11
2023-05-09T10:09:41.816Z,22.03
2023-05-09T10:15:54.556Z,22.06
2023-05-09T11:01:20.988Z,23.94
2023-05-09T11:04:06.497Z,24.33
2023-05-09T11:06:41.553Z,23.95
2023-05-09T11:27:17.512Z,24.51
2023-05-09T11:35:50.711Z,24.72
2023-05-09T11:41:48.599Z,24.70
2023-05-09T11:44:34.646Z,23.54
2023-05-09T11:50:27.894Z,23.98
2023-05-09T11:53:17.806Z,24.33
2023-05-09T11:56:31.340Z,24.55
2023-05-09T12:02:18.154Z,24.47
2023-05-09T12:13:33.774Z,24.24
2023-05-09T12:16:41.349Z,23.33
2023-05-09T12:22:30.169Z,22.75
2023-05-09T12:28:41.357Z,22.86
2023-05-09T12:31:12.346Z,23.08
2023-05-09T12:39:30.889Z,22.86
2023-05-09T12:48:54.731Z,22.13
2023-05-09T12:51:49.105Z,21.74
2023-05-09T12:54:50.515Z,21.85
2023-05-09T13:23:18.159Z,20.12
2023-05-09T13:25:44.385Z,20.03
2023-05-09T13:28:10.640Z,19.61
2023-05-09T13:30:36.939Z,19.65
2023-05-09T13:33:16.718Z,19.06
2023-05-09T13:35:49.434Z,19.35
2023-05-09T13:38:15.669Z,19.88
2023-05-09T13:40:41.914Z,20.34
2023-05-09T13:43:08.173Z,20.76
2023-05-09T13:45:34.446Z,21.06
2023-05-09T13:48:00.844Z,21.29
2023-05-09T13:50:27.222Z,21.43
2023-05-09T13:52:53.473Z,21.60
2023-05-09T13:55:19.712Z,21.55
2023-05-09T13:57:45.991Z,19.95
2023-05-09T14:00:14.470Z,19.49
2023-05-09T14:02:42.196Z,19.84
2023-05-09T14:05:08.522Z,20.19
2023-05-09T14:07:34.755Z,20.46
2023-05-09T14:10:10.966Z,20.12
2023-05-09T14:12:37.936Z,19.47
2023-05-09T14:15:04.184Z,19.23
2023-05-09T14:17:30.445Z,19.22
2023-05-09T14:19:56.712Z,19.23
2023-05-09T14:22:22.953Z,19.40
2023-05-09T14:24:49.198Z,19.67
2023-05-09T14:27:15.428Z,19.78
2023-05-09T14:29:41.683Z,19.89
2023-05-09T14:32:07.909Z,20.07
2023-05-09T14:34:34.159Z,20.06
2023-05-09T14:37:00.397Z,20.15
2023-05-09T14:39:26.662Z,20.22
2023-05-09T14:41:52.962Z,20.31
2023-05-09T14:44:19.293Z,20.33
2023-05-09T14:46:45.547Z,20.27
2023-05-09T14:49:11.897Z,20.27
2023-05-09T14:51:38.156Z,20.29
2023-05-09T14:54:04.765Z,20.09
2023-05-09T14:56:31.057Z,19.85
2023-05-09T14:58:57.331Z,19.79
2023-05-09T15:01:23.601Z,19.64
2023-05-09T15:03:49.863Z,19.28
2023-05-09T15:06:16.113Z,18.55
2023-05-09T15:08:42.341Z,18.62
2023-05-09T15:11:08.564Z,18.73
2023-05-09T15:13:34.863Z,18.38
2023-05-09T15:16:01.723Z,18.02
2023-05-09T15:18:27.992Z,17.72
2023-05-09T15:20:54.209Z,17.21
2023-05-09T15:23:20.586Z,16.76
2023-05-09T15:25:46.872Z,16.56
2023-05-09T15:28:13.119Z,15.94
2023-05-09T15:30:39.528Z,15.73
2023-05-09T15:33:05.847Z,15.69
2023-05-09T15:35:32.405Z,15.43
2023-05-09T15:37:58.706Z,15.77
2023-05-09T15:40:24.955Z,15.70
2023-05-09T15:42:51.251Z,16.03
2023-05-09T15:45:17.555Z,16.27
2023-05-09T15:47:43.889Z,16.38
2023-05-09T15:50:10.188Z,16.45
2023-05-09T15:52:36.410Z,16.41
2023-05-09T15:55:02.738Z,15.57
2023-05-09T15:57:29.037Z,15.91
2023-05-09T15:59:55.331Z,16.14
2023-05-09T16:02:21.671Z,16.31
2023-05-09T16:04:47.989Z,16.44
2023-05-09T16:07:14.244Z,16.52
2023-05-09T16:09:40.498Z,16.63
2023-05-09T16:12:06.750Z,16.65
2023-05-09T16:14:33.044Z,16.70
2023-05-09T16:16:59.377Z,16.49
2023-05-09T16:19:25.615Z,16.53
2023-05-09T16:21:51.878Z,16.44
2023-05-09T16:24:18.315Z,16.41
2023-05-09T16:26:44.586Z,16.38
2023-05-09T16:29:10.907Z,16.39
2023-05-09T16:31:37.223Z,16.32
2023-05-09T16:34:03.551Z,16.33
2023-05-09T16:36:29.805Z,16.25
2023-05-09T16:38:56.033Z,16.23
2023-05-09T16:41:22.280Z,16.27
2023-05-09T16:43:48.509Z,16.28
2023-05-09T16:46:14.819Z,16.24
2023-05-09T16:48:41.127Z,16.20
2023-05-09T16:51:07.376Z,16.16
2023-05-09T16:53:33.681Z,16.17
2023-05-09T16:55:59.994Z,16.14
2023-05-09T16:58:26.223Z,16.07
2023-05-09T17:00:52.491Z,15.94
2023-05-09T17:03:18.744Z,15.86
2023-05-09T17:05:44.985Z,15.85
2023-05-09T17:08:11.230Z,15.81
2023-05-09T17:10:38.472Z,15.74
2023-05-09T17:13:05.807Z,15.66
2023-05-09T17:15:32.076Z,15.57
2023-05-09T17:17:58.361Z,15.54
2023-05-09T17:20:24.730Z,15.37
2023-05-09T17:22:51.018Z,15.29
2023-05-09T17:25:17.332Z,15.20
2023-05-09T17:27:43.577Z,15.09
2023-05-09T17:30:09.835Z,15.04
2023-05-09T17:32:36.115Z,14.83
2023-05-09T17:35:02.425Z,14.76
2023-05-09T17:37:28.750Z,14.72
2023-05-09T17:39:55.035Z,14.58
2023-05-09T17:42:21.264Z,14.44
2023-05-09T17:44:47.509Z,14.44
2023-05-09T17:47:13.808Z,14.43
2023-05-09T17:49:40.085Z,14.37
2023-05-09T17:52:06.379Z,14.39
2023-05-09T17:54:32.618Z,14.43
2023-05-09T17:56:58.893Z,14.42
2023-05-09T17:59:25.132Z,14.47
2023-05-09T18:01:51.425Z,14.48
2023-05-09T18:04:17.695Z,14.49
2023-05-09T18:06:43.949Z,14.52
2023-05-09T18:09:10.193Z,14.48
2023-05-09T18:11:36.446Z,14.46
2023-05-09T18:14:02.699Z,14.50
2023-05-09T18:16:29.156Z,14.48
2023-05-09T18:18:55.473Z,14.47
2023-05-09T18:21:21.719Z,14.38
2023-05-09T18:23:47.978Z,14.40
2023-05-09T18:26:14.252Z,14.33
2023-05-09T18:28:40.500Z,14.30
2023-05-09T18:31:06.777Z,14.33
2023-05-09T18:33:33.004Z,14.29
2023-05-09T18:35:59.421Z,14.30
2023-05-09T18:38:25.695Z,14.22
2023-05-09T18:40:52.038Z,14.06
2023-05-09T18:43:18.324Z,14.09
2023-05-09T18:45:44.629Z,14.13
2023-05-09T18:48:13.546Z,14.15
2023-05-09T18:50:39.852Z,14.18
2023-05-09T18:53:06.081Z,14.19
2023-05-09T18:55:32.336Z,14.17
2023-05-09T18:57:58.591Z,14.14
2023-05-09T19:00:24.841Z,14.13
2023-05-09T19:02:51.117Z,14.11
2023-05-09T19:05:17.403Z,14.08
2023-05-09T19:07:43.671Z,14.09
2023-05-09T19:10:09.930Z,13.89
2023-05-09T19:12:36.249Z,13.88
2023-05-09T19:15:02.560Z,13.88
2023-05-09T19:17:28.839Z,13.87
2023-05-09T19:19:55.132Z,13.86
2023-05-09T19:22:21.374Z,13.85
2023-05-09T19:24:47.636Z,13.84
2023-05-09T19:27:13.872Z,13.82
2023-05-09T19:29:40.101Z,13.82
2023-05-09T19:32:06.353Z,13.71
2023-05-09T19:34:32.631Z,13.72
2023-05-09T19:36:59.717Z,13.76
2023-05-09T19:39:25.998Z,13.77
2023-05-09T19:41:52.235Z,13.77
2023-05-09T19:44:18.495Z,13.71
2023-05-09T19:46:44.785Z,13.73
2023-05-09T19:49:11.089Z,13.68
2023-05-09T19:51:37.317Z,13.62
2023-05-09T19:54:03.558Z,13.62
2023-05-09T19:56:29.845Z,13.56
2023-05-09T19:58:56.118Z,13.51
2023-05-09T20:01:23.099Z,13.43
2023-05-09T20:03:49.449Z,13.38
2023-05-09T20:06:15.734Z,13.33
2023-05-09T20:08:41.994Z,13.35
2023-05-09T20:11:08.841Z,13.33
2023-05-09T20:13:35.182Z,13.29
2023-05-09T20:16:01.432Z,13.32
2023-05-09T20:18:27.667Z,13.30
2023-05-09T20:20:53.928Z,13.31
2023-05-09T20:23:20.180Z,13.32
2023-05-09T20:25:46.401Z,13.37
2023-05-09T20:28:12.669Z,13.32
2023-05-09T20:30:38.896Z,13.30
2023-05-09T20:33:05.187Z,13.21
2023-05-09T20:35:31.432Z,13.11
2023-05-09T20:37:57.667Z,13.12
2023-05-09T20:40:23.925Z,13.11
2023-05-09T20:42:50.216Z,13.08
2023-05-09T20:45:16.546Z,13.03
2023-05-09T20:47:42.824Z,12.98
2023-05-09T20:50:09.121Z,13.01
2023-05-09T20:52:35.349Z,13.01
2023-05-09T20:55:01.593Z,13.07
2023-05-09T20:57:27.840Z,13.06
2023-05-09T20:59:54.098Z,13.07
2023-05-09T21:02:20.648Z,13.08
2023-05-09T21:04:46.960Z,13.13
2023-05-09T21:07:13.227Z,13.13
2023-05-09T21:09:39.462Z,13.12
2023-05-09T21:12:05.705Z,13.11
2023-05-09T21:14:31.967Z,13.11
2023-05-09T21:16:58.348Z,13.10
2023-05-09T21:19:24.730Z,13.05
2023-05-09T21:21:51.003Z,12.98
2023-05-09T21:24:17.256Z,12.92
2023-05-09T21:26:43.520Z,12.88
2023-05-09T21:29:09.799Z,12.91
2023-05-09T21:31:36.139Z,12.95
2023-05-09T21:34:02.495Z,12.89
2023-05-09T21:36:28.729Z,12.92
2023-05-09T21:38:54.991Z,13.00
2023-05-09T21:41:21.261Z,13.03
2023-05-09T21:43:47.498Z,13.03
2023-05-09T21:46:13.772Z,12.96
2023-05-09T21:48:40.043Z,12.89
2023-05-09T21:51:06.277Z,12.85
2023-05-09T21:53:32.538Z,12.73
2023-05-09T21:55:58.759Z,12.74
2023-05-09T21:58:25.001Z,12.78
2023-05-09T22:00:51.256Z,12.79
2023-05-09T22:03:17.591Z,12.83
2023-05-09T22:05:43.954Z,12.87
2023-05-09T22:08:10.196Z,12.89
2023-05-09T22:10:36.410Z,12.88
2023-05-09T22:13:02.668Z,12.85
2023-05-09T22:15:28.915Z,12.86
2023-05-09T22:17:55.206Z,12.86
2023-05-09T22:20:21.484Z,12.89
2023-05-09T22:22:47.730Z,12.89
2023-05-09T22:25:13.990Z,12.85
2023-05-09T22:27:40.225Z,12.84
2023-05-09T22:30:06.467Z,12.87
2023-05-09T22:32:32.731Z,12.93
2023-05-09T22:34:58.987Z,12.97
2023-05-09T22:37:25.228Z,12.85
2023-05-09T22:39:51.475Z,12.82
2023-05-09T22:42:17.705Z,12.80
2023-05-09T22:44:43.951Z,12.79
2023-05-09T22:47:10.174Z,12.76
2023-05-09T22:49:36.402Z,12.71
2023-05-09T22:52:02.640Z,12.73
2023-05-09T22:54:28.912Z,12.70
2023-05-09T22:56:55.146Z,12.68
2023-05-09T22:59:21.390Z,12.66
2023-05-09T23:01:47.643Z,12.63
2023-05-09T23:04:13.903Z,12.63
2023-05-09T23:06:40.149Z,12.60
2023-05-09T23:09:06.389Z,12.59
2023-05-09T23:11:32.639Z,12.56
2023-05-09T23:13:58.867Z,12.56
2023-05-09T23:16:25.082Z,12.47
2023-05-09T23:18:51.358Z,12.47
2023-05-09T23:21:17.609Z,12.52
2023-05-09T23:23:43.866Z,12.56
2023-05-09T23:26:10.119Z,12.56
2023-05-09T23:28:36.379Z,12.56
2023-05-09T23:31:02.660Z,12.46
2023-05-09T23:33:28.919Z,12.45
2023-05-09T23:35:55.187Z,12.41
2023-05-09T23:38:21.441Z,12.46
2023-05-09T23:40:47.682Z,12.49
2023-05-09T23:43:13.936Z,12.53
2023-05-09T23:45:40.232Z,12.53
2023-05-09T23:48:06.529Z,12.50
2023-05-09T23:50:32.804Z,12.51
2023-05-09T23:52:59.035Z,12.48
2023-05-09T23:55:25.267Z,12.44
2023-05-09T23:57:51.516Z,12.42
